createdAt,value
2022-08-04T00:02:48.134Z,9.80
2022-08-04T00:07:56.777Z,9.13
2022-08-04T00:13:04.660Z,12.43
2022-08-04T00:18:12.992Z,19.80
2022-08-04T00:23:19.448Z,17.40
2022-08-04T00:28:26.101Z,62.87
2022-08-04T00:33:32.049Z,18.03
2022-08-04T00:38:39.482Z,21.20
2022-08-04T00:43:53.469Z,13.53
2022-08-04T00:49:04.569Z,17.47
2022-08-04T00:54:27.855Z,17.10
2022-08-04T01:00:06.029Z,15.97
2022-08-04T01:05:20.045Z,27.00
2022-08-04T01:10:49.936Z,12.97
2022-08-04T01:16:07.956Z,12.50
2022-08-04T01:21:46.766Z,19.73
2022-08-04T01:27:07.136Z,16.90
2022-08-04T01:32:27.742Z,17.37
2022-08-04T01:37:50.969Z,20.00
2022-08-04T01:42:58.669Z,18.93
2022-08-04T01:48:05.331Z,22.30
2022-08-04T01:53:10.982Z,15.87
2022-08-04T01:58:19.351Z,20.80
2022-08-04T02:04:20.674Z,16.40
2022-08-04T02:08:46.779Z,16.97
2022-08-04T02:14:21.014Z,19.27
2022-08-04T02:19:35.583Z,11.17
2022-08-04T02:24:49.971Z,16.40
2022-08-04T02:29:58.363Z,12.17
2022-08-04T02:35:16.012Z,20.87
2022-08-04T02:40:22.858Z,14.23
2022-08-04T02:45:30.778Z,14.50
2022-08-04T02:50:38.132Z,13.93
2022-08-04T02:55:50.928Z,18.10
2022-08-04T03:00:53.034Z,13.80
2022-08-04T03:06:13.701Z,15.37
2022-08-04T03:11:28.133Z,22.27
2022-08-04T03:16:54.281Z,21.77
2022-08-04T03:22:08.201Z,21.27
2022-08-04T03:27:37.673Z,15.70
2022-08-04T03:32:51.874Z,22.10
2022-08-04T03:38:09.364Z,18.57
2022-08-04T03:43:57.921Z,31.30
2022-08-04T03:48:56.124Z,32.20
2022-08-04T03:54:04.545Z,23.63
2022-08-04T03:59:13.271Z,28.00
2022-08-04T04:04:36.399Z,25.43
2022-08-04T04:10:07.237Z,30.10
2022-08-04T04:15:28.278Z,28.20
2022-08-04T04:21:00.660Z,26.63
2022-08-04T04:26:28.644Z,26.80
2022-08-04T04:31:37.546Z,24.73
2022-08-04T04:37:01.330Z,25.27
2022-08-04T04:42:30.284Z,17.43
2022-08-04T04:48:09.416Z,25.60
2022-08-04T04:53:06.608Z,24.60
2022-08-04T04:58:14.999Z,27.67
2022-08-04T05:03:44.310Z,24.97
2022-08-04T05:08:58.599Z,21.83
2022-08-04T05:14:36.880Z,25.27
2022-08-04T05:19:28.742Z,23.63
2022-08-04T05:24:38.232Z,17.73
2022-08-04T05:29:49.232Z,19.83
2022-08-04T05:35:03.295Z,20.23
2022-08-04T05:40:11.245Z,16.93
2022-08-04T05:45:16.790Z,21.80
2022-08-04T05:50:24.135Z,19.47
2022-08-04T05:55:48.939Z,17.30
2022-08-04T06:00:41.610Z,22.93
2022-08-04T06:05:49.066Z,20.30
2022-08-04T06:10:57.389Z,16.25
2022-08-04T06:16:05.613Z,15.80
2022-08-04T06:21:16.017Z,21.37
2022-08-04T06:26:20.531Z,17.23
2022-08-04T06:32:28.052Z,18.48
2022-08-04T06:36:44.175Z,17.45
2022-08-04T06:42:14.934Z,16.57
2022-08-04T06:47:00.635Z,15.85
2022-08-04T06:52:08.396Z,17.75
2022-08-04T06:57:16.575Z,14.15
2022-08-04T07:02:24.895Z,14.63
2022-08-04T07:07:36.689Z,14.63
2022-08-04T07:12:39.397Z,13.28
2022-08-04T07:17:45.933Z,13.22
2022-08-04T07:22:53.290Z,14.13
2022-08-04T07:27:59.022Z,15.72
2022-08-04T07:33:04.590Z,14.20
2022-08-04T07:38:11.645Z,13.05
2022-08-04T07:43:18.875Z,13.35
2022-08-04T07:48:24.841Z,13.65
2022-08-04T07:53:54.822Z,11.93
2022-08-04T07:58:38.514Z,11.65
2022-08-04T08:03:44.758Z,15.68
2022-08-04T08:08:50.311Z,17.48
2022-08-04T08:13:56.354Z,9.60
2022-08-04T08:19:03.823Z,10.50
2022-08-04T08:24:12.861Z,12.25
2022-08-04T08:29:19.400Z,13.05
2022-08-04T08:34:28.177Z,8.43
2022-08-04T08:39:49.978Z,9.93
2022-08-04T08:45:04.121Z,9.05
2022-08-04T08:50:15.442Z,6.80
2022-08-04T08:55:30.992Z,6.72
2022-08-04T09:01:00.121Z,13.80
2022-08-04T09:06:17.520Z,7.37
2022-08-04T09:11:28.717Z,5.55
2022-08-04T09:16:39.906Z,6.45
2022-08-04T09:22:00.411Z,5.05
2022-08-04T09:27:08.765Z,5.53
2022-08-04T09:32:17.608Z,4.95
2022-08-04T09:37:46.084Z,4.42
2022-08-04T09:43:04.619Z,6.58
2022-08-04T09:48:31.350Z,5.67
2022-08-04T09:53:51.580Z,5.37
2022-08-04T09:59:21.166Z,5.50
2022-08-04T10:04:29.699Z,6.75
2022-08-04T10:09:47.076Z,5.15
2022-08-04T10:15:16.112Z,5.22
2022-08-04T10:20:44.561Z,4.80
2022-08-04T10:26:10.618Z,4.55
2022-08-04T10:31:19.208Z,7.03
2022-08-04T10:36:31.119Z,6.92
2022-08-04T10:41:51.477Z,7.28
2022-08-04T10:47:05.727Z,7.12
2022-08-04T10:52:14.256Z,5.10
2022-08-04T10:57:37.226Z,7.53
2022-08-04T11:02:58.216Z,5.15
2022-08-04T11:08:14.343Z,4.47
2022-08-04T11:13:30.080Z,7.83
2022-08-04T11:18:41.617Z,6.28
2022-08-04T11:23:59.133Z,4.42
2022-08-04T11:29:22.185Z,5.55
2022-08-04T11:34:29.021Z,7.58
2022-08-04T11:39:46.112Z,3.80
2022-08-04T11:45:05.293Z,3.52
2022-08-04T11:50:22.635Z,11.48
2022-08-04T11:55:33.220Z,6.45
2022-08-04T12:00:46.962Z,3.55
2022-08-04T12:06:11.568Z,4.00
2022-08-04T12:11:34.206Z,5.37
2022-08-04T12:17:16.516Z,6.15
2022-08-04T12:22:31.351Z,4.35
2022-08-04T12:27:56.184Z,5.20
2022-08-04T12:33:07.156Z,4.72
2022-08-04T12:38:16.019Z,5.20
2022-08-04T12:43:38.045Z,6.87
2022-08-04T12:48:46.479Z,4.08
2022-08-04T12:53:56.587Z,10.38
2022-08-04T12:59:12.474Z,27.65
2022-08-04T13:04:28.831Z,5.45
2022-08-04T13:09:34.734Z,5.85
2022-08-04T13:14:44.306Z,7.50
2022-08-04T13:19:53.079Z,8.60
2022-08-04T13:25:18.267Z,5.75
2022-08-04T13:30:10.429Z,4.25
2022-08-04T13:35:17.392Z,10.85
2022-08-04T13:40:25.686Z,10.53
2022-08-04T13:45:34.882Z,7.05
2022-08-04T13:50:48.686Z,4.30
2022-08-04T13:56:00.433Z,10.10
2022-08-04T14:01:14.017Z,15.30
2022-08-04T14:06:25.738Z,6.33
2022-08-04T14:12:09.085Z,5.85
2022-08-04T14:17:07.526Z,9.50
2022-08-04T14:22:35.411Z,10.95
2022-08-04T14:27:58.697Z,8.33
2022-08-04T14:34:03.126Z,7.80
2022-08-04T14:38:16.989Z,7.05
2022-08-04T14:43:22.757Z,4.12
2022-08-04T14:48:28.489Z,5.55
2022-08-04T14:53:40.039Z,7.78
2022-08-04T14:58:46.671Z,4.78
2022-08-04T15:03:53.234Z,5.78
2022-08-04T15:09:03.074Z,6.20
2022-08-04T15:14:09.409Z,8.53
2022-08-04T15:19:18.936Z,5.95
2022-08-04T15:24:26.372Z,8.08
2022-08-04T15:30:00.416Z,6.20
2022-08-04T15:34:54.607Z,9.65
2022-08-04T15:40:08.837Z,6.28
2022-08-04T15:45:20.945Z,7.15
2022-08-04T15:50:28.502Z,8.38
2022-08-04T15:55:39.069Z,6.67
2022-08-04T16:00:55.120Z,11.28
2022-08-04T16:06:02.123Z,11.95
2022-08-04T16:11:30.999Z,8.03
2022-08-04T16:16:49.695Z,7.78
2022-08-04T16:22:00.123Z,6.22
2022-08-04T16:27:14.839Z,6.70
2022-08-04T16:32:23.821Z,8.98
2022-08-04T16:37:40.809Z,8.83
2022-08-04T16:42:47.152Z,11.48
2022-08-04T16:47:55.441Z,25.97
2022-08-04T16:53:02.175Z,7.72
2022-08-04T16:58:07.750Z,9.25
2022-08-04T17:03:13.733Z,7.90
2022-08-04T17:08:29.477Z,11.68
2022-08-04T17:14:02.708Z,15.48
2022-08-04T17:18:44.860Z,11.35
2022-08-04T17:24:12.743Z,15.13
2022-08-04T17:29:04.569Z,11.03
2022-08-04T17:34:15.825Z,9.60
2022-08-04T17:39:25.799Z,9.20
2022-08-04T17:44:38.525Z,11.33
2022-08-04T17:49:52.534Z,8.35
2022-08-04T17:54:54.080Z,11.45
2022-08-04T18:00:01.276Z,8.73
2022-08-04T18:05:11.831Z,12.78
2022-08-04T18:10:30.899Z,7.55
2022-08-04T18:15:30.007Z,19.60
2022-08-04T18:20:37.571Z,8.03
2022-08-04T18:25:51.717Z,16.45
2022-08-04T18:30:56.240Z,12.25
2022-08-04T18:36:34.313Z,11.20
2022-08-04T18:41:09.902Z,10.58
2022-08-04T18:46:16.501Z,14.53
2022-08-04T18:51:25.247Z,10.25
2022-08-04T18:56:32.498Z,11.15
2022-08-04T19:02:09.294Z,15.98
2022-08-04T19:06:46.507Z,12.68
2022-08-04T19:11:54.468Z,9.93
2022-08-04T19:16:59.060Z,8.55
2022-08-04T19:22:08.087Z,14.68
2022-08-04T19:27:13.384Z,13.32
2022-08-04T19:32:20.456Z,13.58
2022-08-04T19:37:57.032Z,13.88
2022-08-04T19:42:34.859Z,9.23
2022-08-04T19:48:16.268Z,16.85
2022-08-04T19:52:52.099Z,9.08
2022-08-04T19:57:54.973Z,8.35
2022-08-04T20:03:00.331Z,11.65
2022-08-04T20:08:05.922Z,16.52
2022-08-04T20:13:12.453Z,8.78
2022-08-04T20:18:35.515Z,9.35
2022-08-04T20:23:47.923Z,15.00
2022-08-04T20:28:36.711Z,11.50
2022-08-04T20:33:42.211Z,9.88
2022-08-04T20:38:53.095Z,31.68
2022-08-04T20:43:57.756Z,12.68
2022-08-04T20:49:03.200Z,11.25
2022-08-04T20:54:16.864Z,9.23
2022-08-04T20:59:17.137Z,8.75
2022-08-04T21:04:32.103Z,12.15
2022-08-04T21:09:50.112Z,11.10
2022-08-04T21:14:46.854Z,11.90
2022-08-04T21:19:53.629Z,11.30
2022-08-04T21:24:59.154Z,13.15
2022-08-04T21:30:10.421Z,8.30
2022-08-04T21:35:16.169Z,9.68
2022-08-04T21:40:32.530Z,13.40
2022-08-04T21:45:36.403Z,13.75
2022-08-04T21:50:35.210Z,8.63
2022-08-04T21:56:05.598Z,8.43
2022-08-04T22:00:48.986Z,11.60
2022-08-04T22:05:55.806Z,9.98
2022-08-04T22:11:01.498Z,6.90
2022-08-04T22:16:07.120Z,7.00
2022-08-04T22:21:12.680Z,8.90
2022-08-04T22:26:27.003Z,9.25
2022-08-04T22:31:27.810Z,14.07
2022-08-04T22:36:34.833Z,10.85
2022-08-04T22:41:48.939Z,9.15
2022-08-04T22:46:49.931Z,13.78
2022-08-04T22:51:55.390Z,8.93
2022-08-04T22:57:02.791Z,6.05
2022-08-04T23:02:09.107Z,8.20
2022-08-04T23:07:23.883Z,6.03
2022-08-04T23:12:25.614Z,7.45
2022-08-04T23:17:32.918Z,8.03
2022-08-04T23:22:41.386Z,7.10
2022-08-04T23:27:48.142Z,5.30
2022-08-04T23:32:55.207Z,8.53
2022-08-04T23:38:31.697Z,6.87
2022-08-04T23:43:12.390Z,5.62
2022-08-04T23:48:20.895Z,16.10
2022-08-04T23:53:22.641Z,5.67
2022-08-04T23:58:28.699Z,7.85
